Time;durP1;ratioP1;P1;durP2;ratioP2;P2;SDS_P1;SDS_P2;PMS_P1;PMS_P2;Temp;Humidity;BMP_temperature;BMP_pressure;BME280_temperature;BME280_humidity;BME280_pressure;Samples;Min_cycle;Max_cycle;Signal;HPM_P1;HPM_P2
2024/01/20 00:01:22;;;;;;;5.13;4.60;;;5.60;99.90;;;;;;5040411;28;20033;-79
2024/01/20 00:03:50;;;;;;;5.22;4.40;;;5.60;99.90;;;;;;5042222;28;20041;-76
2024/01/20 00:06:17;;;;;;;4.90;4.35;;;5.50;99.90;;;;;;5044937;28;20122;-85
2024/01/20 00:08:45;;;;;;;4.82;4.32;;;5.40;99.90;;;;;;5045652;28;20389;-73
2024/01/20 00:11:13;;;;;;;5.05;4.55;;;5.40;99.90;;;;;;5021881;28;20492;-76
2024/01/20 00:13:41;;;;;;;5.18;4.68;;;5.50;99.90;;;;;;5018009;28;20104;-75
2024/01/20 00:16:09;;;;;;;4.80;4.40;;;5.30;99.90;;;;;;5038314;28;20121;-84
2024/01/20 00:18:36;;;;;;;5.18;4.68;;;5.20;99.90;;;;;;5023697;28;20037;-76
2024/01/20 00:21:04;;;;;;;4.78;4.38;;;5.20;99.90;;;;;;5035766;28;20075;-78
2024/01/20 00:23:32;;;;;;;4.63;4.20;;;5.10;99.90;;;;;;5028887;28;20046;-80
2024/01/20 00:25:59;;;;;;;4.80;4.30;;;5.10;99.90;;;;;;5013263;28;20037;-77
2024/01/20 00:28:27;;;;;;;4.85;4.25;;;5.00;99.90;;;;;;5027972;28;20091;-80
2024/01/20 00:30:54;;;;;;;5.65;4.40;;;4.80;99.90;;;;;;5035299;28;20061;-75
2024/01/20 00:33:22;;;;;;;12.10;8.68;;;4.60;99.90;;;;;;5033842;28;20055;-76
2024/01/20 00:36:08;;;;;;;7.90;5.55;;;4.60;99.90;;;;;;5007729;28;20034;-77
2024/01/20 00:38:38;;;;;;;5.05;4.50;;;4.50;99.90;;;;;;5030582;28;20605;-73
2024/01/20 00:41:07;;;;;;;5.30;4.80;;;4.40;99.90;;;;;;5021171;28;20038;-77
2024/01/20 00:43:34;;;;;;;4.95;4.45;;;4.20;99.90;;;;;;5019150;28;20048;-77
2024/01/20 00:46:02;;;;;;;4.90;4.50;;;4.10;99.90;;;;;;5039881;28;20037;-80
2024/01/20 00:48:29;;;;;;;5.30;4.80;;;4.00;99.90;;;;;;5031431;28;20493;-77
2024/01/20 00:50:57;;;;;;;5.30;4.80;;;4.10;99.90;;;;;;5035781;28;20049;-77
2024/01/20 00:53:27;;;;;;;5.30;4.90;;;3.70;99.90;;;;;;5001521;28;20025;-75
2024/01/20 00:55:55;;;;;;;5.13;4.63;;;3.70;99.90;;;;;;5038248;28;20970;-75
2024/01/20 00:58:22;;;;;;;5.25;4.75;;;3.50;99.90;;;;;;5039170;28;20369;-78
2024/01/20 01:00:50;;;;;;;5.30;4.80;;;3.40;99.90;;;;;;5025069;28;20089;-75
2024/01/20 01:03:17;;;;;;;5.57;5.00;;;3.30;99.90;;;;;;5036089;28;20041;-79
2024/01/20 01:05:45;;;;;;;5.40;4.90;;;3.30;99.90;;;;;;5032691;28;20025;-82
2024/01/20 01:08:12;;;;;;;4.78;4.35;;;3.30;99.90;;;;;;5024245;28;20033;-75
2024/01/20 01:10:41;;;;;;;5.30;4.80;;;3.20;99.90;;;;;;5033095;28;20048;-81
2024/01/20 01:13:08;;;;;;;5.60;5.10;;;3.10;99.90;;;;;;5051264;28;20087;-74
2024/01/20 01:15:35;;;;;;;7.72;5.00;;;3.10;99.90;;;;;;5049349;28;20045;-80
2024/01/20 01:18:04;;;;;;;5.53;5.03;;;3.00;99.90;;;;;;5046597;28;20156;-81
2024/01/20 01:20:31;;;;;;;5.40;4.90;;;3.00;99.90;;;;;;5055672;28;20116;-75
2024/01/20 01:22:59;;;;;;;5.30;4.70;;;2.90;99.90;;;;;;5042319;28;20119;-79
2024/01/20 01:25:26;;;;;;;5.50;5.00;;;2.90;99.90;;;;;;5048173;28;20108;-75
2024/01/20 01:28:11;;;;;;;5.53;5.03;;;2.70;99.90;;;;;;5051041;28;20409;-75
2024/01/20 01:30:38;;;;;;;5.35;4.85;;;2.80;99.90;;;;;;5055974;28;20105;-79
2024/01/20 01:33:05;;;;;;;5.30;4.90;;;2.70;99.90;;;;;;5035957;28;20033;-81
2024/01/20 01:35:33;;;;;;;5.38;4.88;;;2.60;99.90;;;;;;5038064;28;20037;-74
2024/01/20 01:38:17;;;;;;;5.82;5.18;;;2.60;99.90;;;;;;5051050;28;20030;-77
2024/01/20 01:41:23;;;;;;;5.18;4.70;;;2.50;99.90;;;;;;5020921;28;20553;-79
2024/01/20 01:43:50;;;;;;;5.10;4.70;;;2.30;99.90;;;;;;5052704;28;20033;-76
2024/01/20 01:46:18;;;;;;;5.00;4.60;;;2.30;99.90;;;;;;5059942;28;20029;-75
2024/01/20 01:48:46;;;;;;;5.35;4.93;;;2.10;99.90;;;;;;5042239;28;20048;-79
2024/01/20 01:51:14;;;;;;;7.00;5.00;;;1.90;99.90;;;;;;5038432;28;20041;-75
2024/01/20 01:53:42;;;;;;;5.15;4.70;;;1.90;99.90;;;;;;5026750;28;20086;-73
2024/01/20 01:56:11;;;;;;;5.43;4.90;;;1.90;99.90;;;;;;5061040;28;20040;-78
2024/01/20 01:58:38;;;;;;;5.30;4.80;;;1.90;99.90;;;;;;5060128;28;20033;-79
2024/01/20 02:01:06;;;;;;;5.45;4.95;;;1.80;99.90;;;;;;5059240;28;20965;-83
2024/01/20 02:03:33;;;;;;;5.38;4.88;;;1.80;99.90;;;;;;5058619;28;20431;-74
2024/01/20 02:06:01;;;;;;;5.10;4.60;;;1.90;99.90;;;;;;5043175;28;20031;-77
2024/01/20 02:08:28;;;;;;;5.15;4.70;;;1.70;99.90;;;;;;5057251;28;20041;-74
2024/01/20 02:10:57;;;;;;;5.43;4.93;;;1.80;99.90;;;;;;5052918;28;20123;-74
2024/01/20 02:13:25;;;;;;;5.47;4.97;;;1.80;99.90;;;;;;5045369;28;20068;-76
2024/01/20 02:15:53;;;;;;;5.32;4.82;;;1.90;99.90;;;;;;5049387;28;20411;-75
2024/01/20 02:18:22;;;;;;;5.10;4.70;;;2.00;99.90;;;;;;5050473;28;20056;-75
2024/01/20 02:20:50;;;;;;;5.15;4.65;;;2.00;99.90;;;;;;5048760;28;20373;-83
2024/01/20 02:23:18;;;;;;;5.00;4.60;;;1.90;99.90;;;;;;5036530;28;20079;-73
2024/01/20 02:25:46;;;;;;;5.13;4.72;;;1.90;99.90;;;;;;5046629;28;20384;-76
2024/01/20 02:28:14;;;;;;;5.15;4.70;;;2.00;99.90;;;;;;5041021;28;20059;-74
2024/01/20 02:30:43;;;;;;;5.25;4.75;;;1.80;99.90;;;;;;5051619;28;20047;-82
2024/01/20 02:33:10;;;;;;;5.50;5.00;;;1.80;99.90;;;;;;5033769;28;20431;-74
2024/01/20 02:35:38;;;;;;;5.60;5.10;;;1.70;99.90;;;;;;5047232;28;20040;-77
2024/01/20 02:38:05;;;;;;;5.63;5.13;;;1.90;99.90;;;;;;5052230;28;20700;-74
2024/01/20 02:40:33;;;;;;;5.68;5.18;;;2.00;99.90;;;;;;5032810;28;20043;-73
2024/01/20 02:43:00;;;;;;;5.65;5.15;;;2.10;99.90;;;;;;5054267;28;20067;-73
2024/01/20 02:45:27;;;;;;;5.80;5.30;;;2.00;99.90;;;;;;5049821;28;20420;-74
2024/01/20 02:47:55;;;;;;;5.57;5.07;;;1.80;99.90;;;;;;5047987;28;20047;-72
2024/01/20 02:50:22;;;;;;;5.20;4.70;;;2.00;99.90;;;;;;5048120;28;20036;-75
2024/01/20 02:53:07;;;;;;;5.50;5.00;;;2.20;99.90;;;;;;5029954;28;20021;-80
2024/01/20 02:55:35;;;;;;;5.75;5.00;;;2.00;99.90;;;;;;5054942;28;20428;-73
2024/01/20 02:58:21;;;;;;;5.45;4.95;;;1.90;99.90;;;;;;5044348;28;20043;-74
2024/01/20 03:00:48;;;;;;;5.50;5.00;;;2.10;99.90;;;;;;5052131;28;20040;-74
2024/01/20 03:03:16;;;;;;;6.30;5.07;;;2.10;99.90;;;;;;5049560;28;20658;-78
2024/01/20 03:05:43;;;;;;;5.50;5.00;;;2.30;99.90;;;;;;5022108;28;20133;-79
2024/01/20 03:08:11;;;;;;;5.47;4.97;;;2.50;99.90;;;;;;5049411;28;20090;-81
2024/01/20 03:10:39;;;;;;;5.57;5.07;;;2.80;99.90;;;;;;5044242;28;20063;-75
2024/01/20 03:13:07;;;;;;;5.70;5.20;;;3.00;99.90;;;;;;5047568;28;20155;-78
2024/01/20 03:15:34;;;;;;;5.75;5.25;;;2.90;99.90;;;;;;5035885;28;20061;-73
2024/01/20 03:18:02;;;;;;;5.45;4.95;;;2.70;99.90;;;;;;5047142;28;20056;-82
2024/01/20 03:20:29;;;;;;;5.85;5.32;;;2.70;99.90;;;;;;5048285;28;20036;-72
2024/01/20 03:22:56;;;;;;;6.05;5.45;;;2.90;99.90;;;;;;5032576;28;20115;-77
2024/01/20 03:25:24;;;;;;;7.78;5.45;;;2.60;99.90;;;;;;5027264;28;20047;-76
2024/01/20 03:27:53;;;;;;;5.90;5.32;;;2.80;99.90;;;;;;5046647;28;20033;-73
2024/01/20 03:30:21;;;;;;;6.40;5.80;;;3.00;99.90;;;;;;5051249;28;20060;-78
2024/01/20 03:32:48;;;;;;;6.55;5.82;;;3.10;99.90;;;;;;5046663;28;20396;-78
2024/01/20 03:35:16;;;;;;;9.95;6.00;;;3.30;99.90;;;;;;5050949;28;20119;-79
2024/01/20 03:37:43;;;;;;;6.75;6.00;;;3.30;99.90;;;;;;5050182;28;20091;-78
2024/01/20 03:40:11;;;;;;;7.80;6.57;;;3.20;99.90;;;;;;5047866;28;20051;-75
2024/01/20 03:42:38;;;;;;;9.05;7.30;;;2.70;99.90;;;;;;5047482;28;20068;-78
2024/01/20 03:45:06;;;;;;;10.70;6.55;;;2.10;99.90;;;;;;5046692;28;20029;-77
2024/01/20 03:47:33;;;;;;;8.50;6.65;;;2.20;99.90;;;;;;5035680;28;20135;-79
2024/01/20 03:50:03;;;;;;;9.50;7.13;;;2.40;99.90;;;;;;5048076;28;20087;-75
2024/01/20 03:52:31;;;;;;;9.00;7.35;;;2.70;99.90;;;;;;5046431;28;20036;-76
2024/01/20 03:54:58;;;;;;;8.20;7.03;;;2.80;99.90;;;;;;5054220;28;20067;-80
2024/01/20 03:57:28;;;;;;;8.80;7.00;;;3.00;99.90;;;;;;5052751;28;20476;-78
2024/01/20 03:59:56;;;;;;;9.65;7.82;;;2.90;99.90;;;;;;5049046;28;20043;-84
2024/01/20 04:02:23;;;;;;;8.60;6.93;;;2.90;99.90;;;;;;5047535;28;20040;-74
2024/01/20 04:04:51;;;;;;;8.32;7.10;;;3.00;99.90;;;;;;5051385;28;20365;-81
2024/01/20 04:07:18;;;;;;;8.15;6.57;;;2.90;99.90;;;;;;5052938;28;20044;-77
2024/01/20 04:09:46;;;;;;;7.03;6.32;;;3.10;99.90;;;;;;5050087;28;20670;-73
2024/01/20 04:12:13;;;;;;;7.47;6.43;;;3.30;99.90;;;;;;5051008;28;20045;-79
2024/01/20 04:14:40;;;;;;;7.80;6.60;;;3.20;99.90;;;;;;5048927;28;20376;-77
2024/01/20 04:17:08;;;;;;;6.78;6.07;;;3.30;99.90;;;;;;5049071;28;20053;-80
2024/01/20 04:19:35;;;;;;;6.00;5.40;;;3.40;99.90;;;;;;5044935;28;20024;-80
2024/01/20 04:22:03;;;;;;;8.10;5.38;;;2.70;99.90;;;;;;5051177;28;20059;-78
2024/01/20 04:24:30;;;;;;;6.10;5.50;;;2.40;99.90;;;;;;5050797;28;20139;-80
2024/01/20 04:26:57;;;;;;;5.95;5.35;;;2.30;99.90;;;;;;5051402;28;20110;-78
2024/01/20 04:29:25;;;;;;;5.35;4.85;;;2.10;99.90;;;;;;5047373;28;20164;-78
2024/01/20 04:31:52;;;;;;;6.20;5.60;;;2.20;99.90;;;;;;5049335;28;20083;-75
2024/01/20 04:34:19;;;;;;;6.70;5.60;;;2.30;99.90;;;;;;5048617;28;20392;-75
2024/01/20 04:37:04;;;;;;;6.88;5.25;;;2.10;99.90;;;;;;5046638;28;20021;-77
2024/01/20 04:39:31;;;;;;;5.75;5.25;;;2.10;99.90;;;;;;5049025;28;20415;-75
2024/01/20 04:41:58;;;;;;;5.65;5.13;;;2.20;99.90;;;;;;5029501;28;20445;-76
2024/01/20 04:44:26;;;;;;;5.93;5.32;;;2.10;99.90;;;;;;5044469;28;20443;-73
2024/01/20 04:46:53;;;;;;;6.00;5.40;;;2.00;99.90;;;;;;5027761;28;20091;-74
2024/01/20 04:49:20;;;;;;;6.20;5.55;;;1.90;99.90;;;;;;5046069;28;20052;-78
2024/01/20 04:51:49;;;;;;;6.20;5.55;;;1.80;99.90;;;;;;5047877;28;20047;-76
2024/01/20 04:54:16;;;;;;;5.40;4.90;;;1.60;99.90;;;;;;5048529;28;20060;-73
2024/01/20 04:56:43;;;;;;;5.50;5.00;;;1.40;99.90;;;;;;5044639;28;20495;-76
2024/01/20 04:59:11;;;;;;;5.95;5.43;;;1.40;99.90;;;;;;5032301;28;20048;-75
2024/01/20 05:01:38;;;;;;;6.05;5.45;;;1.40;99.90;;;;;;5049519;28;20396;-73
2024/01/20 05:04:07;;;;;;;5.95;5.13;;;1.40;99.90;;;;;;5025492;28;20131;-72
2024/01/20 05:06:34;;;;;;;5.10;4.70;;;1.40;99.90;;;;;;5049238;28;20477;-76
2024/01/20 05:09:02;;;;;;;5.78;5.05;;;1.30;99.90;;;;;;5049270;28;20065;-76
2024/01/20 05:11:29;;;;;;;5.57;5.07;;;1.30;99.90;;;;;;5047348;28;20253;-74
2024/01/20 05:13:57;;;;;;;5.78;5.20;;;1.40;99.90;;;;;;5039083;28;20080;-76
2024/01/20 05:16:24;;;;;;;5.95;5.20;;;1.40;99.90;;;;;;5040165;28;20086;-78
2024/01/20 05:18:52;;;;;;;5.80;5.20;;;1.30;99.90;;;;;;5047907;28;20094;-73
2024/01/20 05:21:20;;;;;;;5.45;4.95;;;1.30;99.90;;;;;;5050202;28;20045;-77
2024/01/20 05:23:48;;;;;;;5.63;5.10;;;1.30;99.90;;;;;;5034896;28;20041;-77
2024/01/20 05:26:15;;;;;;;5.47;5.00;;;1.20;99.90;;;;;;5033673;28;20103;-74
2024/01/20 05:28:43;;;;;;;5.13;4.72;;;1.20;99.90;;;;;;5052092;28;20102;-73
2024/01/20 05:31:10;;;;;;;5.28;4.78;;;1.20;99.90;;;;;;5052434;28;20382;-76
2024/01/20 05:33:38;;;;;;;5.38;4.88;;;1.20;99.90;;;;;;5052364;28;20028;-75
2024/01/20 05:36:06;;;;;;;5.88;5.28;;;1.20;99.90;;;;;;5051659;28;20044;-75
2024/01/20 05:38:33;;;;;;;5.72;5.00;;;1.30;99.90;;;;;;5052417;28;20029;-75
2024/01/20 05:41:00;;;;;;;5.80;5.30;;;1.30;99.90;;;;;;5033844;28;20706;-73
2024/01/20 05:43:28;;;;;;;5.03;4.63;;;1.20;99.90;;;;;;5045880;28;20376;-74
2024/01/20 05:45:55;;;;;;;5.30;4.80;;;1.20;99.90;;;;;;5053037;28;20029;-73
2024/01/20 05:48:22;;;;;;;5.10;4.70;;;1.20;99.90;;;;;;5050437;28;20061;-73
2024/01/20 05:50:50;;;;;;;5.65;5.15;;;1.20;99.90;;;;;;5056192;28;20464;-75
2024/01/20 05:53:18;;;;;;;5.22;4.72;;;1.10;99.90;;;;;;5046222;28;20481;-73
2024/01/20 05:55:45;;;;;;;5.60;5.10;;;1.00;99.90;;;;;;5050218;28;20376;-74
2024/01/20 05:58:13;;;;;;;5.57;5.07;;;1.00;99.90;;;;;;5035102;28;20603;-74
2024/01/20 06:00:40;;;;;;;5.63;5.10;;;1.00;99.90;;;;;;5050758;28;20051;-73
2024/01/20 06:03:08;;;;;;;5.30;4.80;;;1.10;99.90;;;;;;5051949;28;20040;-71
2024/01/20 06:05:35;;;;;;;6.47;5.88;;;1.00;99.90;;;;;;5049384;28;20116;-72
2024/01/20 06:08:03;;;;;;;5.65;5.15;;;1.20;99.90;;;;;;5051945;28;20468;-73
2024/01/20 06:10:30;;;;;;;5.45;4.95;;;1.10;99.90;;;;;;5048260;28;20124;-73
2024/01/20 06:12:58;;;;;;;6.22;5.40;;;1.00;99.90;;;;;;5048983;28;20045;-76
2024/01/20 06:15:25;;;;;;;5.45;4.90;;;1.10;99.90;;;;;;5030193;28;20032;-74
2024/01/20 06:17:53;;;;;;;5.55;4.95;;;1.10;99.90;;;;;;5033543;28;20590;-75
2024/01/20 06:20:21;;;;;;;5.70;5.10;;;1.10;99.90;;;;;;5034473;28;20363;-76
2024/01/20 06:22:48;;;;;;;5.63;5.13;;;1.00;99.90;;;;;;5051113;28;20045;-76
2024/01/20 06:25:15;;;;;;;6.55;5.70;;;1.00;99.90;;;;;;5051729;28;20029;-73
2024/01/20 06:27:43;;;;;;;5.97;5.47;;;1.10;99.90;;;;;;5051399;28;20412;-73
2024/01/20 06:30:11;;;;;;;5.60;5.10;;;1.10;99.90;;;;;;5051764;28;20044;-74
2024/01/20 06:32:39;;;;;;;6.20;5.60;;;1.10;99.90;;;;;;5049216;28;20406;-75
2024/01/20 06:35:08;;;;;;;7.00;5.45;;;1.00;99.90;;;;;;5051040;28;20060;-74
2024/01/20 06:37:35;;;;;;;5.72;5.22;;;1.00;99.90;;;;;;5042713;28;20385;-76
2024/01/20 06:40:03;;;;;;;5.35;4.85;;;1.10;99.90;;;;;;5055298;28;20094;-73
2024/01/20 06:42:31;;;;;;;6.00;5.40;;;1.00;99.90;;;;;;5047018;28;20044;-72
2024/01/20 06:44:58;;;;;;;5.55;5.07;;;0.90;99.90;;;;;;5042195;28;20435;-83
2024/01/20 06:47:29;;;;;;;5.78;5.28;;;0.80;99.90;;;;;;5049555;28;20065;-76
2024/01/20 06:49:57;;;;;;;6.25;5.07;;;0.80;99.90;;;;;;5046983;28;20503;-74
2024/01/20 06:52:24;;;;;;;5.55;5.05;;;0.90;99.90;;;;;;5051413;28;20373;-75
2024/01/20 06:54:51;;;;;;;5.45;4.95;;;0.70;99.90;;;;;;5049925;28;20043;-75
2024/01/20 06:57:18;;;;;;;5.57;5.07;;;0.60;99.90;;;;;;5051074;28;20045;-77
2024/01/20 06:59:46;;;;;;;5.70;5.20;;;0.60;99.90;;;;;;5050871;28;20041;-77
2024/01/20 07:02:13;;;;;;;5.93;5.20;;;0.50;99.90;;;;;;5050515;28;20064;-76
2024/01/20 07:04:40;;;;;;;5.75;5.22;;;0.60;99.90;;;;;;5033185;28;20147;-77
2024/01/20 07:07:25;;;;;;;5.68;5.18;;;0.40;99.90;;;;;;5053593;28;20027;-74
2024/01/20 07:09:53;;;;;;;6.22;5.28;;;0.50;99.90;;;;;;5050539;28;20033;-77
2024/01/20 07:12:21;;;;;;;5.50;5.00;;;0.50;99.90;;;;;;5051170;28;20436;-74
2024/01/20 07:14:48;;;;;;;5.88;5.38;;;0.50;99.90;;;;;;5048287;28;20547;-78
2024/01/20 07:17:16;;;;;;;5.70;5.20;;;0.40;99.90;;;;;;5051184;28;20571;-77
2024/01/20 07:19:43;;;;;;;5.72;5.15;;;0.60;99.90;;;;;;5049006;28;20032;-78
2024/01/20 07:22:10;;;;;;;6.13;5.53;;;0.40;99.90;;;;;;5047727;28;20033;-73
2024/01/20 07:24:37;;;;;;;5.43;4.93;;;0.50;99.90;;;;;;5046560;28;20037;-76
2024/01/20 07:27:05;;;;;;;5.57;5.07;;;0.60;99.90;;;;;;5046844;28;20032;-80
2024/01/20 07:29:32;;;;;;;6.20;5.60;;;0.50;99.90;;;;;;5049105;28;20040;-75
2024/01/20 07:31:59;;;;;;;6.05;5.15;;;0.50;99.90;;;;;;5045503;28;20033;-73
2024/01/20 07:34:27;;;;;;;5.90;5.40;;;0.60;99.90;;;;;;5041660;28;20040;-78
2024/01/20 07:36:54;;;;;;;6.53;5.70;;;0.60;99.90;;;;;;5034259;28;20048;-81
2024/01/20 07:39:21;;;;;;;24.13;13.55;;;0.50;99.90;;;;;;5015385;28;20029;-78
2024/01/20 07:41:49;;;;;;;9.82;8.07;;;0.60;99.90;;;;;;5040354;28;20041;-77
2024/01/20 07:44:16;;;;;;;8.52;6.43;;;0.70;99.90;;;;;;5027007;28;20374;-70
2024/01/20 07:46:43;;;;;;;8.88;7.18;;;0.70;99.90;;;;;;5051909;28;20079;-70
2024/01/20 07:49:11;;;;;;;16.00;11.95;;;0.60;99.90;;;;;;5054084;28;20040;-68
2024/01/20 07:51:38;;;;;;;5.80;5.20;;;0.60;99.90;;;;;;5049533;28;20416;-67
2024/01/20 07:54:06;;;;;;;5.50;5.00;;;0.60;99.90;;;;;;5035441;28;20033;-71
2024/01/20 07:56:33;;;;;;;5.65;5.15;;;0.40;99.90;;;;;;5051930;28;20115;-68
2024/01/20 07:59:01;;;;;;;5.20;4.75;;;0.40;99.90;;;;;;5046422;28;20083;-69
2024/01/20 08:01:28;;;;;;;5.38;4.88;;;0.30;99.90;;;;;;5046074;28;20036;-69
2024/01/20 08:03:57;;;;;;;5.25;4.75;;;0.30;99.90;;;;;;5024661;28;20040;-71
2024/01/20 08:06:27;;;;;;;5.60;5.10;;;0.20;99.90;;;;;;5029927;28;20083;-68
2024/01/20 08:08:54;;;;;;;5.90;5.13;;;0.20;99.90;;;;;;5042536;28;20037;-69
2024/01/20 08:11:21;;;;;;;5.20;4.78;;;0.20;99.90;;;;;;5043414;28;20130;-70
2024/01/20 08:13:49;;;;;;;5.57;5.07;;;0.20;99.90;;;;;;5047365;28;20041;-70
2024/01/20 08:16:16;;;;;;;6.95;5.88;;;0.20;99.90;;;;;;5041339;28;20383;-70
2024/01/20 08:18:44;;;;;;;6.25;5.65;;;0.30;99.90;;;;;;5035484;28;20067;-68
2024/01/20 08:21:11;;;;;;;6.05;5.45;;;0.30;99.90;;;;;;5041868;28;20049;-69
2024/01/20 08:23:39;;;;;;;5.78;5.22;;;0.30;99.90;;;;;;5026986;28;20277;-69
2024/01/20 08:26:06;;;;;;;6.22;5.63;;;0.30;99.90;;;;;;5039404;28;20084;-69
2024/01/20 08:28:34;;;;;;;6.38;5.72;;;0.30;99.90;;;;;;5048435;28;20187;-69
2024/01/20 08:31:02;;;;;;;6.20;5.60;;;0.30;99.90;;;;;;5036646;28;20033;-72
2024/01/20 08:33:29;;;;;;;5.50;5.00;;;0.30;99.90;;;;;;5031649;28;20120;-70
2024/01/20 08:35:57;;;;;;;6.20;5.60;;;0.30;99.90;;;;;;5041061;28;20113;-72
2024/01/20 08:38:25;;;;;;;5.78;5.10;;;0.30;99.90;;;;;;5040019;28;20817;-69
2024/01/20 08:40:52;;;;;;;6.50;5.90;;;0.20;99.90;;;;;;5035171;28;20128;-70
2024/01/20 08:43:20;;;;;;;5.80;5.22;;;0.20;99.90;;;;;;5048546;28;20407;-68
2024/01/20 08:45:47;;;;;;;6.30;5.70;;;0.20;99.90;;;;;;5046406;28;20036;-69
2024/01/20 08:48:15;;;;;;;5.50;4.80;;;0.20;99.90;;;;;;5043514;28;20436;-71
2024/01/20 08:50:43;;;;;;;6.32;5.70;;;0.10;99.90;;;;;;5048455;28;20052;-69
2024/01/20 08:53:10;;;;;;;6.00;5.40;;;0.20;99.90;;;;;;5043706;28;20477;-69
2024/01/20 08:55:39;;;;;;;5.93;5.43;;;0.20;99.90;;;;;;5043665;28;20191;-72
2024/01/20 08:58:07;;;;;;;8.35;7.50;;;0.20;99.90;;;;;;5050674;28;20534;-69
2024/01/20 09:00:34;;;;;;;6.97;6.28;;;0.20;99.90;;;;;;5051470;28;20040;-73
2024/01/20 09:03:02;;;;;;;7.22;6.20;;;0.30;99.90;;;;;;5024864;28;20481;-69
2024/01/20 09:05:30;;;;;;;14.50;9.57;;;0.40;99.90;;;;;;5046507;28;20063;-75
2024/01/20 09:08:07;;;;;;;7.18;6.43;;;0.30;99.90;;;;;;5032897;28;20040;-83
2024/01/20 09:10:36;;;;;;;5.97;5.47;;;0.50;99.90;;;;;;5045638;28;20096;-83
2024/01/20 09:13:07;;;;;;;6.30;5.70;;;0.60;99.90;;;;;;5047885;28;20065;-82
2024/01/20 09:15:34;;;;;;;6.88;6.28;;;0.60;99.90;;;;;;5027769;28;20108;-77
2024/01/20 09:18:02;;;;;;;5.88;5.28;;;0.40;99.90;;;;;;5046809;28;20040;-83
2024/01/20 09:20:30;;;;;;;5.85;5.35;;;0.60;99.90;;;;;;5050204;28;20083;-80
2024/01/20 09:22:58;;;;;;;6.50;5.75;;;0.40;99.90;;;;;;5030960;28;20190;-78
2024/01/20 09:25:25;;;;;;;6.03;5.22;;;0.40;99.90;;;;;;5030164;28;20041;-77
2024/01/20 09:27:53;;;;;;;6.38;5.78;;;0.40;99.90;;;;;;5036434;28;20510;-82
2024/01/20 09:30:21;;;;;;;5.65;5.07;;;0.50;99.90;;;;;;5037245;28;20072;-75
2024/01/20 09:32:49;;;;;;;6.38;5.63;;;0.50;99.90;;;;;;5032632;28;20436;-81
2024/01/20 09:35:16;;;;;;;6.57;5.95;;;0.60;99.90;;;;;;5032903;28;20376;-81
2024/01/20 09:37:43;;;;;;;6.15;5.55;;;0.50;99.90;;;;;;5027318;28;20687;-77
2024/01/20 09:40:11;;;;;;;6.20;5.60;;;0.40;99.90;;;;;;5049471;28;20149;-82
2024/01/20 09:42:57;;;;;;;9.95;7.35;;;0.40;99.90;;;;;;5052640;28;20387;-82
2024/01/20 09:45:25;;;;;;;5.53;5.03;;;0.50;99.90;;;;;;5052454;28;20041;-78
2024/01/20 09:47:52;;;;;;;7.03;6.32;;;0.60;99.90;;;;;;5048052;28;20036;-79
2024/01/20 09:50:22;;;;;;;6.28;5.68;;;0.60;99.90;;;;;;5052703;28;20086;-79
2024/01/20 09:52:57;;;;;;;6.70;5.53;;;0.50;99.90;;;;;;5046262;28;20079;-78
2024/01/20 09:55:26;;;;;;;6.45;5.50;;;0.40;99.90;;;;;;5035384;28;20060;-80
2024/01/20 09:58:00;;;;;;;5.82;4.93;;;0.50;99.90;;;;;;5044787;28;20117;-79
2024/01/20 10:00:29;;;;;;;6.43;5.70;;;0.40;99.90;;;;;;5020511;28;20045;-79
2024/01/20 10:03:02;;;;;;;6.45;5.78;;;0.40;99.90;;;;;;5050173;28;20025;-80
2024/01/20 10:05:33;;;;;;;6.30;5.32;;;0.50;99.90;;;;;;5027779;28;20298;-78
2024/01/20 10:08:01;;;;;;;5.78;5.18;;;0.40;99.90;;;;;;5049098;28;20037;-77
2024/01/20 10:10:31;;;;;;;7.50;4.88;;;0.40;99.90;;;;;;5046676;28;20124;-78
2024/01/20 10:13:00;;;;;;;5.55;5.05;;;0.40;99.90;;;;;;5034997;28;20065;-78
2024/01/20 10:15:30;;;;;;;;;;;0.40;99.90;;;;;;5042936;28;20132;-77
2024/01/20 10:18:09;;;;;;;6.50;5.85;;;0.40;99.90;;;;;;5049702;28;19939;-77
2024/01/20 10:20:37;;;;;;;6.55;5.63;;;0.30;99.90;;;;;;5026187;28;20350;-79
2024/01/20 10:23:06;;;;;;;6.18;5.28;;;0.40;99.90;;;;;;5044572;28;20141;-78
2024/01/20 10:25:34;;;;;;;5.95;5.35;;;0.40;99.90;;;;;;5042496;28;20043;-79
2024/01/20 10:28:02;;;;;;;5.68;5.18;;;0.40;99.90;;;;;;5032745;28;20400;-78
2024/01/20 10:30:30;;;;;;;6.03;5.43;;;0.40;99.90;;;;;;5032580;28;20048;-78
2024/01/20 10:33:02;;;;;;;6.95;5.15;;;0.60;99.90;;;;;;5049380;28;20029;-80
2024/01/20 10:35:37;;;;;;;7.13;6.43;;;0.50;99.90;;;;;;5044815;28;20044;-78
2024/01/20 10:38:21;;;;;;;17.48;10.20;;;0.50;99.90;;;;;;5040351;28;20033;-80
2024/01/20 10:41:01;;;;;;;6.40;5.80;;;0.80;99.90;;;;;;5027361;28;20050;-77
2024/01/20 10:43:37;;;;;;;6.45;5.85;;;0.50;99.90;;;;;;5046537;28;20041;-78
2024/01/20 10:46:26;;;;;;;7.85;6.82;;;0.50;99.90;;;;;;5044983;28;20385;-80
2024/01/20 10:48:55;;;;;;;12.70;8.10;;;0.80;99.90;;;;;;5043470;28;20041;-83
2024/01/20 10:51:27;;;;;;;5.63;5.10;;;1.10;99.90;;;;;;5031230;28;20115;-76
2024/01/20 10:53:57;;;;;;;6.97;5.63;;;0.70;99.90;;;;;;5042342;28;20044;-83
2024/01/20 10:56:26;;;;;;;11.63;5.65;;;0.50;99.90;;;;;;5054647;28;20099;-82
2024/01/20 10:59:08;;;;;;;5.60;5.10;;;0.40;99.90;;;;;;5049566;28;20037;-77
2024/01/20 11:01:38;;;;;;;6.15;5.38;;;0.40;99.90;;;;;;5045448;28;20033;-82
2024/01/20 11:04:07;;;;;;;8.02;6.25;;;0.50;99.90;;;;;;5022588;28;20076;-84
2024/01/20 11:06:36;;;;;;;6.50;5.90;;;0.50;99.90;;;;;;5030252;28;20029;-79
2024/01/20 11:09:04;;;;;;;5.65;5.15;;;0.70;99.90;;;;;;5047724;28;20104;-78
2024/01/20 11:11:35;;;;;;;5.97;5.38;;;0.70;99.90;;;;;;5049091;28;20045;-78
2024/01/20 11:14:03;;;;;;;9.65;5.97;;;0.70;99.90;;;;;;5010791;28;20531;-79
2024/01/20 11:16:50;;;;;;;6.00;5.40;;;0.80;99.90;;;;;;5038636;28;20049;-75
2024/01/20 11:19:18;;;;;;;7.22;5.78;;;0.90;99.90;;;;;;5046299;28;20472;-75
2024/01/20 11:21:46;;;;;;;6.18;5.57;;;0.90;99.90;;;;;;5043504;28;20132;-76
2024/01/20 11:24:16;;;;;;;6.15;4.90;;;0.90;99.90;;;;;;5047837;28;20087;-73
2024/01/20 11:26:43;;;;;;;8.25;6.18;;;0.80;99.90;;;;;;5048073;28;20036;-75
2024/01/20 11:29:11;;;;;;;6.03;5.43;;;0.90;99.90;;;;;;5048683;28;20068;-77
2024/01/20 11:31:45;;;;;;;6.13;5.53;;;0.90;99.90;;;;;;5041804;28;20037;-77
2024/01/20 11:34:30;;;;;;;6.53;5.50;;;0.80;99.90;;;;;;5049472;28;20490;-76
2024/01/20 11:36:59;;;;;;;8.48;5.80;;;0.70;99.90;;;;;;5047851;28;20529;-78
2024/01/20 11:39:27;;;;;;;5.78;5.20;;;0.60;99.90;;;;;;5044890;28;20033;-76
2024/01/20 11:42:03;;;;;;;6.30;5.70;;;0.60;99.90;;;;;;5045769;28;20029;-76
2024/01/20 11:44:47;;;;;;;8.32;5.32;;;0.50;99.90;;;;;;5050888;28;20033;-76
2024/01/20 11:47:15;;;;;;;7.20;6.35;;;0.50;99.90;;;;;;5034005;28;20117;-76
2024/01/20 11:49:43;;;;;;;6.50;5.80;;;0.60;99.90;;;;;;5043639;28;20041;-78
2024/01/20 11:52:10;;;;;;;7.57;5.85;;;0.60;99.90;;;;;;5054035;28;20460;-78
2024/01/20 11:54:38;;;;;;;6.43;5.60;;;0.80;99.90;;;;;;5049316;28;20046;-78
2024/01/20 11:57:05;;;;;;;7.25;6.18;;;0.50;99.90;;;;;;5049497;28;20033;-78
2024/01/20 11:59:33;;;;;;;7.75;6.00;;;0.40;99.90;;;;;;5043776;28;20120;-74
2024/01/20 12:02:17;;;;;;;8.88;5.88;;;0.70;99.90;;;;;;5047951;28;20350;-76
2024/01/20 12:04:45;;;;;;;8.95;6.30;;;0.60;99.90;;;;;;5044887;28;20043;-77
2024/01/20 12:07:13;;;;;;;8.60;6.55;;;0.50;99.90;;;;;;5044361;28;20456;-74
2024/01/20 12:09:50;;;;;;;6.35;5.55;;;0.60;99.90;;;;;;5043092;28;20376;-77
2024/01/20 12:12:19;;;;;;;6.20;5.60;;;0.60;99.90;;;;;;5051986;28;20029;-75
2024/01/20 12:14:46;;;;;;;6.63;6.03;;;0.40;99.90;;;;;;5045229;28;20036;-75
2024/01/20 12:17:14;;;;;;;8.95;6.28;;;0.50;99.90;;;;;;5050077;28;20079;-77
2024/01/20 12:19:42;;;;;;;6.82;5.57;;;0.40;99.90;;;;;;5029557;28;20041;-76
2024/01/20 12:22:14;;;;;;;5.90;5.30;;;0.40;99.90;;;;;;5044112;28;20033;-78
2024/01/20 12:24:48;;;;;;;7.63;6.50;;;0.40;99.90;;;;;;5050294;28;20182;-77
2024/01/20 12:27:16;;;;;;;7.60;6.80;;;0.40;99.90;;;;;;5044907;28;20485;-79
2024/01/20 12:29:44;;;;;;;6.97;5.90;;;0.40;99.90;;;;;;5031519;28;20423;-78
2024/01/20 12:32:12;;;;;;;8.68;6.75;;;0.50;99.90;;;;;;5046744;28;20025;-77
2024/01/20 12:34:39;;;;;;;6.88;6.18;;;0.60;99.90;;;;;;5034202;28;20422;-79
2024/01/20 12:37:07;;;;;;;7.78;5.95;;;0.60;99.90;;;;;;5049496;28;20144;-79
2024/01/20 12:39:35;;;;;;;8.93;6.47;;;0.40;99.90;;;;;;5048012;28;20383;-76
2024/01/20 12:42:03;;;;;;;8.32;6.57;;;0.40;99.90;;;;;;5050722;28;20037;-77
2024/01/20 12:44:30;;;;;;;5.72;5.22;;;0.40;99.90;;;;;;5049366;28;20416;-75
2024/01/20 12:46:58;;;;;;;7.20;6.50;;;0.40;99.90;;;;;;5028672;28;20037;-76
2024/01/20 12:49:25;;;;;;;8.88;6.50;;;0.50;99.90;;;;;;5047652;28;20033;-77
2024/01/20 12:51:53;;;;;;;7.35;6.43;;;0.60;99.90;;;;;;5045771;28;20033;-78
2024/01/20 12:54:20;;;;;;;8.02;6.07;;;0.60;99.90;;;;;;5048656;28;20045;-78
2024/01/20 12:56:48;;;;;;;7.15;6.30;;;0.60;99.90;;;;;;5045343;28;20040;-77
2024/01/20 12:59:15;;;;;;;7.95;6.40;;;0.60;99.90;;;;;;5030752;28;20175;-79
2024/01/20 13:01:43;;;;;;;7.45;6.50;;;0.60;99.90;;;;;;5021486;28;20040;-77
2024/01/20 13:04:13;;;;;;;6.88;6.03;;;0.60;99.90;;;;;;5048627;28;20033;-79
2024/01/20 13:06:40;;;;;;;6.47;5.40;;;0.60;99.90;;;;;;5028285;28;20032;-76